sensor_id;sensor_type;location;lat;lon;timestamp;temperature;humidity
71563;DHT22;59391;52.504;13.438;2023-06-10T00:01:44;19.90;55.40
71563;DHT22;59391;52.504;13.438;2023-06-10T00:04:13;19.90;55.50
71563;DHT22;59391;52.504;13.438;2023-06-10T00:06:40;19.90;55.70
71563;DHT22;59391;52.504;13.438;2023-06-10T00:09:06;19.90;55.60
71563;DHT22;59391;52.504;13.438;2023-06-10T00:11:36;19.80;55.90
71563;DHT22;59391;52.504;13.438;2023-06-10T00:14:03;19.80;55.90
71563;DHT22;59391;52.504;13.438;2023-06-10T00:16:29;19.80;55.90
71563;DHT22;59391;52.504;13.438;2023-06-10T00:18:54;19.80;55.90
71563;DHT22;59391;52.504;13.438;2023-06-10T00:21:29;19.80;56.10
71563;DHT22;59391;52.504;13.438;2023-06-10T00:24:04;19.70;56.20
71563;DHT22;59391;52.504;13.438;2023-06-10T00:26:31;19.70;56.40
71563;DHT22;59391;52.504;13.438;2023-06-10T00:28:57;19.70;56.40
71563;DHT22;59391;52.504;13.438;2023-06-10T00:31:22;19.70;56.60
71563;DHT22;59391;52.504;13.438;2023-06-10T00:33:48;19.60;56.50
71563;DHT22;59391;52.504;13.438;2023-06-10T00:36:14;19.60;56.60
71563;DHT22;59391;52.504;13.438;2023-06-10T00:38:39;19.60;56.50
71563;DHT22;59391;52.504;13.438;2023-06-10T00:41:06;19.60;56.60
71563;DHT22;59391;52.504;13.438;2023-06-10T00:43:32;19.60;56.80
71563;DHT22;59391;52.504;13.438;2023-06-10T00:45:58;19.60;56.70
71563;DHT22;59391;52.504;13.438;2023-06-10T00:48:24;19.60;56.70
71563;DHT22;59391;52.504;13.438;2023-06-10T00:50:50;19.60;56.70
71563;DHT22;59391;52.504;13.438;2023-06-10T00:53:16;19.50;56.70
71563;DHT22;59391;52.504;13.438;2023-06-10T00:55:43;19.50;56.70
71563;DHT22;59391;52.504;13.438;2023-06-10T00:58:08;19.50;56.80
71563;DHT22;59391;52.504;13.438;2023-06-10T01:00:34;19.50;56.90
71563;DHT22;59391;52.504;13.438;2023-06-10T01:03:00;19.40;57.10
71563;DHT22;59391;52.504;13.438;2023-06-10T01:05:26;19.40;57.00
71563;DHT22;59391;52.504;13.438;2023-06-10T01:10:53;19.30;57.10
71563;DHT22;59391;52.504;13.438;2023-06-10T01:13:22;19.30;57.30
71563;DHT22;59391;52.504;13.438;2023-06-10T01:15:50;19.30;57.60
71563;DHT22;59391;52.504;13.438;2023-06-10T01:18:17;19.30;57.60
71563;DHT22;59391;52.504;13.438;2023-06-10T01:20:43;19.20;57.70
71563;DHT22;59391;52.504;13.438;2023-06-10T01:23:10;19.20;57.70
71563;DHT22;59391;52.504;13.438;2023-06-10T01:26:00;19.20;57.80
71563;DHT22;59391;52.504;13.438;2023-06-10T01:28:39;19.20;57.90
71563;DHT22;59391;52.504;13.438;2023-06-10T01:31:16;19.20;57.80
71563;DHT22;59391;52.504;13.438;2023-06-10T01:33:51;19.10;57.90
71563;DHT22;59391;52.504;13.438;2023-06-10T01:36:18;19.10;58.00
71563;DHT22;59391;52.504;13.438;2023-06-10T01:38:47;19.10;58.10
71563;DHT22;59391;52.504;13.438;2023-06-10T01:41:14;19.10;58.10
71563;DHT22;59391;52.504;13.438;2023-06-10T01:43:43;19.10;58.20
71563;DHT22;59391;52.504;13.438;2023-06-10T01:46:09;19.00;58.20
71563;DHT22;59391;52.504;13.438;2023-06-10T01:48:37;19.00;58.40
71563;DHT22;59391;52.504;13.438;2023-06-10T01:51:03;18.90;58.50
71563;DHT22;59391;52.504;13.438;2023-06-10T01:53:29;18.90;58.40
71563;DHT22;59391;52.504;13.438;2023-06-10T01:55:55;18.90;58.60
71563;DHT22;59391;52.504;13.438;2023-06-10T01:58:21;18.80;58.70
71563;DHT22;59391;52.504;13.438;2023-06-10T02:00:47;18.80;58.90
71563;DHT22;59391;52.504;13.438;2023-06-10T02:03:12;18.80;58.80
71563;DHT22;59391;52.504;13.438;2023-06-10T02:05:38;18.80;58.90
71563;DHT22;59391;52.504;13.438;2023-06-10T02:08:04;18.80;59.00
71563;DHT22;59391;52.504;13.438;2023-06-10T02:10:30;18.80;59.10
71563;DHT22;59391;52.504;13.438;2023-06-10T02:12:56;18.70;59.20
71563;DHT22;59391;52.504;13.438;2023-06-10T02:15:21;18.70;59.30
71563;DHT22;59391;52.504;13.438;2023-06-10T02:17:47;18.70;59.30
71563;DHT22;59391;52.504;13.438;2023-06-10T02:20:14;18.70;59.30
71563;DHT22;59391;52.504;13.438;2023-06-10T02:22:40;18.70;59.40
71563;DHT22;59391;52.504;13.438;2023-06-10T02:25:06;18.70;59.30
71563;DHT22;59391;52.504;13.438;2023-06-10T02:27:32;18.70;59.30
71563;DHT22;59391;52.504;13.438;2023-06-10T02:29:57;18.60;59.30
71563;DHT22;59391;52.504;13.438;2023-06-10T02:32:23;18.60;59.50
71563;DHT22;59391;52.504;13.438;2023-06-10T02:34:49;18.60;59.50
71563;DHT22;59391;52.504;13.438;2023-06-10T02:37:15;18.60;59.60
71563;DHT22;59391;52.504;13.438;2023-06-10T02:39:41;18.60;59.60
71563;DHT22;59391;52.504;13.438;2023-06-10T02:42:07;18.50;59.70
71563;DHT22;59391;52.504;13.438;2023-06-10T02:44:33;18.50;59.60
71563;DHT22;59391;52.504;13.438;2023-06-10T02:46:58;18.50;59.60
71563;DHT22;59391;52.504;13.438;2023-06-10T02:49:25;18.50;59.70
71563;DHT22;59391;52.504;13.438;2023-06-10T02:51:53;18.50;59.90
71563;DHT22;59391;52.504;13.438;2023-06-10T02:54:19;18.40;59.80
71563;DHT22;59391;52.504;13.438;2023-06-10T02:56:45;18.40;59.80
71563;DHT22;59391;52.504;13.438;2023-06-10T02:59:13;18.40;60.00
71563;DHT22;59391;52.504;13.438;2023-06-10T03:01:40;18.40;60.10
71563;DHT22;59391;52.504;13.438;2023-06-10T03:04:06;18.30;60.10
71563;DHT22;59391;52.504;13.438;2023-06-10T03:06:33;18.40;60.20
71563;DHT22;59391;52.504;13.438;2023-06-10T03:09:00;18.30;60.30
71563;DHT22;59391;52.504;13.438;2023-06-10T03:11:25;18.30;60.20
71563;DHT22;59391;52.504;13.438;2023-06-10T03:13:51;18.30;60.50
71563;DHT22;59391;52.504;13.438;2023-06-10T03:16:19;18.30;60.60
71563;DHT22;59391;52.504;13.438;2023-06-10T03:18:45;18.30;60.60
71563;DHT22;59391;52.504;13.438;2023-06-10T03:21:11;18.20;60.60
71563;DHT22;59391;52.504;13.438;2023-06-10T03:23:36;18.30;60.50
71563;DHT22;59391;52.504;13.438;2023-06-10T03:26:03;18.20;60.70
71563;DHT22;59391;52.504;13.438;2023-06-10T03:28:30;18.20;60.80
71563;DHT22;59391;52.504;13.438;2023-06-10T03:30:56;18.20;60.80
71563;DHT22;59391;52.504;13.438;2023-06-10T03:33:22;18.20;60.90
71563;DHT22;59391;52.504;13.438;2023-06-10T03:35:48;18.20;60.80
71563;DHT22;59391;52.504;13.438;2023-06-10T03:38:13;18.20;60.90
71563;DHT22;59391;52.504;13.438;2023-06-10T03:40:39;18.20;60.90
71563;DHT22;59391;52.504;13.438;2023-06-10T03:43:05;18.20;60.80
71563;DHT22;59391;52.504;13.438;2023-06-10T03:45:31;18.20;61.00
71563;DHT22;59391;52.504;13.438;2023-06-10T03:47:57;18.20;60.90
71563;DHT22;59391;52.504;13.438;2023-06-10T03:50:23;18.20;61.00
71563;DHT22;59391;52.504;13.438;2023-06-10T03:52:50;18.20;60.80
71563;DHT22;59391;52.504;13.438;2023-06-10T03:55:16;18.20;61.10
71563;DHT22;59391;52.504;13.438;2023-06-10T03:57:43;18.20;61.20
71563;DHT22;59391;52.504;13.438;2023-06-10T04:00:09;18.20;60.80
71563;DHT22;59391;52.504;13.438;2023-06-10T04:02:37;18.20;61.00
71563;DHT22;59391;52.504;13.438;2023-06-10T04:05:07;18.20;61.00
71563;DHT22;59391;52.504;13.438;2023-06-10T04:07:33;18.20;60.90
71563;DHT22;59391;52.504;13.438;2023-06-10T04:09:59;18.20;61.00
71563;DHT22;59391;52.504;13.438;2023-06-10T04:12:25;18.20;61.20
71563;DHT22;59391;52.504;13.438;2023-06-10T04:14:50;18.20;61.20
71563;DHT22;59391;52.504;13.438;2023-06-10T04:17:17;18.30;61.20
71563;DHT22;59391;52.504;13.438;2023-06-10T04:19:43;18.30;61.30
71563;DHT22;59391;52.504;13.438;2023-06-10T04:22:08;18.30;61.10
71563;DHT22;59391;52.504;13.438;2023-06-10T04:24:34;18.30;61.10
71563;DHT22;59391;52.504;13.438;2023-06-10T04:27:00;18.30;61.10
71563;DHT22;59391;52.504;13.438;2023-06-10T04:29:26;18.30;61.10
71563;DHT22;59391;52.504;13.438;2023-06-10T04:31:52;18.30;60.90
71563;DHT22;59391;52.504;13.438;2023-06-10T04:34:17;18.30;61.00
71563;DHT22;59391;52.504;13.438;2023-06-10T04:36:43;18.40;60.90
71563;DHT22;59391;52.504;13.438;2023-06-10T04:39:09;18.40;60.90
71563;DHT22;59391;52.504;13.438;2023-06-10T04:41:34;18.40;60.80
71563;DHT22;59391;52.504;13.438;2023-06-10T04:44:00;18.40;60.80
71563;DHT22;59391;52.504;13.438;2023-06-10T04:46:25;18.40;60.80
71563;DHT22;59391;52.504;13.438;2023-06-10T04:48:51;18.40;60.60
71563;DHT22;59391;52.504;13.438;2023-06-10T04:51:17;18.50;60.60
71563;DHT22;59391;52.504;13.438;2023-06-10T04:53:42;18.50;60.60
71563;DHT22;59391;52.504;13.438;2023-06-10T04:56:08;18.50;60.70
71563;DHT22;59391;52.504;13.438;2023-06-10T04:58:34;18.50;60.60
71563;DHT22;59391;52.504;13.438;2023-06-10T05:00:59;18.50;60.60
71563;DHT22;59391;52.504;13.438;2023-06-10T05:03:26;18.50;60.50
71563;DHT22;59391;52.504;13.438;2023-06-10T05:05:52;18.60;60.50
71563;DHT22;59391;52.504;13.438;2023-06-10T05:08:18;18.60;60.50
71563;DHT22;59391;52.504;13.438;2023-06-10T05:10:43;18.60;60.60
71563;DHT22;59391;52.504;13.438;2023-06-10T05:13:09;18.60;60.60
71563;DHT22;59391;52.504;13.438;2023-06-10T05:15:34;18.60;60.60
71563;DHT22;59391;52.504;13.438;2023-06-10T05:18:00;18.70;60.50
71563;DHT22;59391;52.504;13.438;2023-06-10T05:20:27;18.80;60.50
71563;DHT22;59391;52.504;13.438;2023-06-10T05:22:54;18.80;60.60
71563;DHT22;59391;52.504;13.438;2023-06-10T05:25:20;18.90;60.60
71563;DHT22;59391;52.504;13.438;2023-06-10T05:27:46;18.90;60.50
71563;DHT22;59391;52.504;13.438;2023-06-10T05:30:12;19.00;60.50
71563;DHT22;59391;52.504;13.438;2023-06-10T05:32:38;19.00;60.50
71563;DHT22;59391;52.504;13.438;2023-06-10T05:35:03;19.10;60.30
71563;DHT22;59391;52.504;13.438;2023-06-10T05:37:30;19.20;60.20
71563;DHT22;59391;52.504;13.438;2023-06-10T05:39:55;19.30;60.20
71563;DHT22;59391;52.504;13.438;2023-06-10T05:42:21;19.30;60.20
71563;DHT22;59391;52.504;13.438;2023-06-10T05:44:47;19.40;60.20
71563;DHT22;59391;52.504;13.438;2023-06-10T05:47:12;19.50;60.00
71563;DHT22;59391;52.504;13.438;2023-06-10T05:49:38;19.60;59.80
71563;DHT22;59391;52.504;13.438;2023-06-10T05:52:04;19.80;59.70
71563;DHT22;59391;52.504;13.438;2023-06-10T05:54:30;19.90;59.20
71563;DHT22;59391;52.504;13.438;2023-06-10T05:56:55;20.00;59.00
71563;DHT22;59391;52.504;13.438;2023-06-10T05:59:21;20.10;58.70
71563;DHT22;59391;52.504;13.438;2023-06-10T06:01:48;20.20;58.20
71563;DHT22;59391;52.504;13.438;2023-06-10T06:04:15;20.30;57.90
71563;DHT22;59391;52.504;13.438;2023-06-10T06:06:41;20.40;57.60
71563;DHT22;59391;52.504;13.438;2023-06-10T06:09:07;20.50;57.20
71563;DHT22;59391;52.504;13.438;2023-06-10T06:11:33;20.70;57.10
71563;DHT22;59391;52.504;13.438;2023-06-10T06:14:00;20.70;56.70
71563;DHT22;59391;52.504;13.438;2023-06-10T06:16:25;20.90;56.80
71563;DHT22;59391;52.504;13.438;2023-06-10T06:18:51;20.90;56.20
71563;DHT22;59391;52.504;13.438;2023-06-10T06:21:17;21.00;56.10
71563;DHT22;59391;52.504;13.438;2023-06-10T06:23:42;21.10;55.60
71563;DHT22;59391;52.504;13.438;2023-06-10T06:26:08;21.10;55.60
71563;DHT22;59391;52.504;13.438;2023-06-10T06:28:33;21.20;55.30
71563;DHT22;59391;52.504;13.438;2023-06-10T06:30:59;21.30;54.90
71563;DHT22;59391;52.504;13.438;2023-06-10T06:33:25;21.40;55.00
71563;DHT22;59391;52.504;13.438;2023-06-10T06:35:51;21.50;55.00
71563;DHT22;59391;52.504;13.438;2023-06-10T06:38:17;21.50;54.80
71563;DHT22;59391;52.504;13.438;2023-06-10T06:40:43;21.60;54.60
71563;DHT22;59391;52.504;13.438;2023-06-10T06:43:08;21.70;54.40
71563;DHT22;59391;52.504;13.438;2023-06-10T06:45:34;21.70;54.20
71563;DHT22;59391;52.504;13.438;2023-06-10T06:47:59;21.80;54.10
71563;DHT22;59391;52.504;13.438;2023-06-10T06:50:25;21.90;53.70
71563;DHT22;59391;52.504;13.438;2023-06-10T06:52:51;22.00;53.60
71563;DHT22;59391;52.504;13.438;2023-06-10T06:55:17;22.00;53.60
71563;DHT22;59391;52.504;13.438;2023-06-10T06:57:42;22.10;53.20
71563;DHT22;59391;52.504;13.438;2023-06-10T07:00:08;22.20;52.90
71563;DHT22;59391;52.504;13.438;2023-06-10T07:02:35;22.30;52.80
71563;DHT22;59391;52.504;13.438;2023-06-10T07:05:01;22.30;53.30
71563;DHT22;59391;52.504;13.438;2023-06-10T07:07:27;22.40;52.50
71563;DHT22;59391;52.504;13.438;2023-06-10T07:09:52;22.50;52.40
71563;DHT22;59391;52.504;13.438;2023-06-10T07:12:18;22.50;52.50
71563;DHT22;59391;52.504;13.438;2023-06-10T07:14:44;22.60;52.10
71563;DHT22;59391;52.504;13.438;2023-06-10T07:17:10;22.70;52.00
71563;DHT22;59391;52.504;13.438;2023-06-10T07:19:35;22.70;51.80
71563;DHT22;59391;52.504;13.438;2023-06-10T07:22:01;22.80;51.70
71563;DHT22;59391;52.504;13.438;2023-06-10T07:24:27;22.90;51.30
71563;DHT22;59391;52.504;13.438;2023-06-10T07:26:52;22.90;51.00
71563;DHT22;59391;52.504;13.438;2023-06-10T07:29:18;23.00;51.20
71563;DHT22;59391;52.504;13.438;2023-06-10T07:31:44;23.00;51.20
71563;DHT22;59391;52.504;13.438;2023-06-10T07:34:10;23.10;51.60
71563;DHT22;59391;52.504;13.438;2023-06-10T07:36:36;23.20;51.40
71563;DHT22;59391;52.504;13.438;2023-06-10T07:39:02;23.20;50.90
71563;DHT22;59391;52.504;13.438;2023-06-10T07:41:27;23.30;50.80
71563;DHT22;59391;52.504;13.438;2023-06-10T07:43:53;23.40;50.50
71563;DHT22;59391;52.504;13.438;2023-06-10T07:46:23;23.40;51.00
71563;DHT22;59391;52.504;13.438;2023-06-10T07:48:49;23.50;50.70
71563;DHT22;59391;52.504;13.438;2023-06-10T07:51:16;23.60;50.80
71563;DHT22;59391;52.504;13.438;2023-06-10T07:53:42;23.60;50.30
71563;DHT22;59391;52.504;13.438;2023-06-10T07:56:08;23.70;50.20
71563;DHT22;59391;52.504;13.438;2023-06-10T07:58:33;23.80;50.00
71563;DHT22;59391;52.504;13.438;2023-06-10T08:00:59;23.90;49.90
71563;DHT22;59391;52.504;13.438;2023-06-10T08:03:29;24.00;49.50
71563;DHT22;59391;52.504;13.438;2023-06-10T08:06:01;24.10;49.30
71563;DHT22;59391;52.504;13.438;2023-06-10T08:08:31;24.20;49.40
71563;DHT22;59391;52.504;13.438;2023-06-10T08:11:00;24.30;48.80
71563;DHT22;59391;52.504;13.438;2023-06-10T08:13:30;24.40;48.70
71563;DHT22;59391;52.504;13.438;2023-06-10T08:16:05;24.60;48.50
71563;DHT22;59391;52.504;13.438;2023-06-10T08:18:33;24.70;48.00
71563;DHT22;59391;52.504;13.438;2023-06-10T08:21:02;24.90;47.90
71563;DHT22;59391;52.504;13.438;2023-06-10T08:23:33;25.00;47.10
71563;DHT22;59391;52.504;13.438;2023-06-10T08:26:02;25.10;46.70
71563;DHT22;59391;52.504;13.438;2023-06-10T08:28:36;25.20;46.40
71563;DHT22;59391;52.504;13.438;2023-06-10T08:31:16;25.30;46.20
71563;DHT22;59391;52.504;13.438;2023-06-10T08:33:52;25.40;45.90
71563;DHT22;59391;52.504;13.438;2023-06-10T08:36:20;25.50;45.80
71563;DHT22;59391;52.504;13.438;2023-06-10T08:38:46;25.50;45.90
71563;DHT22;59391;52.504;13.438;2023-06-10T08:41:14;25.60;46.20
71563;DHT22;59391;52.504;13.438;2023-06-10T08:47:02;25.80;45.50
71563;DHT22;59391;52.504;13.438;2023-06-10T08:49:49;26.00;45.40
71563;DHT22;59391;52.504;13.438;2023-06-10T08:52:20;26.20;45.10
71563;DHT22;59391;52.504;13.438;2023-06-10T08:54:59;26.40;44.90
71563;DHT22;59391;52.504;13.438;2023-06-10T08:57:27;26.50;44.40
71563;DHT22;59391;52.504;13.438;2023-06-10T08:59:53;26.70;44.20
71563;DHT22;59391;52.504;13.438;2023-06-10T09:02:20;26.90;44.50
71563;DHT22;59391;52.504;13.438;2023-06-10T09:04:47;27.10;44.00
71563;DHT22;59391;52.504;13.438;2023-06-10T09:07:16;27.30;44.10
71563;DHT22;59391;52.504;13.438;2023-06-10T09:09:43;27.50;43.20
71563;DHT22;59391;52.504;13.438;2023-06-10T09:12:10;27.70;43.00
71563;DHT22;59391;52.504;13.438;2023-06-10T09:14:37;27.80;42.50
71563;DHT22;59391;52.504;13.438;2023-06-10T09:17:06;27.90;42.50
71563;DHT22;59391;52.504;13.438;2023-06-10T09:19:32;28.10;41.90
71563;DHT22;59391;52.504;13.438;2023-06-10T09:21:58;28.30;41.90
71563;DHT22;59391;52.504;13.438;2023-06-10T09:24:24;28.40;41.30
71563;DHT22;59391;52.504;13.438;2023-06-10T09:26:50;28.60;41.00
71563;DHT22;59391;52.504;13.438;2023-06-10T09:29:27;28.70;41.30
71563;DHT22;59391;52.504;13.438;2023-06-10T09:31:53;28.80;40.70
71563;DHT22;59391;52.504;13.438;2023-06-10T09:34:24;28.90;40.50
71563;DHT22;59391;52.504;13.438;2023-06-10T09:36:56;29.00;40.50
71563;DHT22;59391;52.504;13.438;2023-06-10T09:39:21;29.10;40.50
71563;DHT22;59391;52.504;13.438;2023-06-10T09:41:47;29.10;39.80
71563;DHT22;59391;52.504;13.438;2023-06-10T09:44:20;29.10;40.00
71563;DHT22;59391;52.504;13.438;2023-06-10T09:46:49;29.10;39.80
71563;DHT22;59391;52.504;13.438;2023-06-10T09:49:16;29.00;39.60
71563;DHT22;59391;52.504;13.438;2023-06-10T09:51:55;28.90;39.70
71563;DHT22;59391;52.504;13.438;2023-06-10T09:54:21;28.80;39.80
71563;DHT22;59391;52.504;13.438;2023-06-10T09:56:48;28.70;39.70
71563;DHT22;59391;52.504;13.438;2023-06-10T09:59:14;28.60;39.60
71563;DHT22;59391;52.504;13.438;2023-06-10T10:01:41;28.50;39.80
71563;DHT22;59391;52.504;13.438;2023-06-10T10:04:07;28.30;39.70
71563;DHT22;59391;52.504;13.438;2023-06-10T10:06:34;28.20;40.20
71563;DHT22;59391;52.504;13.438;2023-06-10T10:09:00;28.10;39.90
71563;DHT22;59391;52.504;13.438;2023-06-10T10:11:26;28.00;40.00
71563;DHT22;59391;52.504;13.438;2023-06-10T10:13:53;27.90;40.10
71563;DHT22;59391;52.504;13.438;2023-06-10T10:16:37;27.80;40.30
71563;DHT22;59391;52.504;13.438;2023-06-10T10:19:27;27.70;40.80
71563;DHT22;59391;52.504;13.438;2023-06-10T10:22:01;27.60;41.10
71563;DHT22;59391;52.504;13.438;2023-06-10T10:24:35;27.60;40.70
71563;DHT22;59391;52.504;13.438;2023-06-10T10:27:11;27.60;40.40
71563;DHT22;59391;52.504;13.438;2023-06-10T10:29:46;27.60;39.60
71563;DHT22;59391;52.504;13.438;2023-06-10T10:32:16;27.50;39.80
71563;DHT22;59391;52.504;13.438;2023-06-10T10:34:50;27.50;39.50
71563;DHT22;59391;52.504;13.438;2023-06-10T10:37:21;27.50;39.40
71563;DHT22;59391;52.504;13.438;2023-06-10T10:39:48;27.50;38.70
71563;DHT22;59391;52.504;13.438;2023-06-10T10:42:15;27.50;38.70
71563;DHT22;59391;52.504;13.438;2023-06-10T10:44:42;27.50;37.90
71563;DHT22;59391;52.504;13.438;2023-06-10T10:47:09;27.50;37.50
71563;DHT22;59391;52.504;13.438;2023-06-10T10:49:37;27.50;37.40
71563;DHT22;59391;52.504;13.438;2023-06-10T10:52:03;27.60;37.20
71563;DHT22;59391;52.504;13.438;2023-06-10T10:54:36;27.60;37.10
71563;DHT22;59391;52.504;13.438;2023-06-10T10:59:57;27.90;36.70
71563;DHT22;59391;52.504;13.438;2023-06-10T11:02:33;28.10;36.20
71563;DHT22;59391;52.504;13.438;2023-06-10T11:05:09;28.30;35.70
71563;DHT22;59391;52.504;13.438;2023-06-10T11:07:36;28.40;35.40
71563;DHT22;59391;52.504;13.438;2023-06-10T11:10:07;28.50;35.00
71563;DHT22;59391;52.504;13.438;2023-06-10T11:12:51;28.60;34.90
71563;DHT22;59391;52.504;13.438;2023-06-10T11:18:14;28.70;35.00
71563;DHT22;59391;52.504;13.438;2023-06-10T11:21:01;28.80;34.80
71563;DHT22;59391;52.504;13.438;2023-06-10T11:26:13;29.10;34.60
71563;DHT22;59391;52.504;13.438;2023-06-10T11:31:30;29.60;34.30
71563;DHT22;59391;52.504;13.438;2023-06-10T11:34:03;30.00;33.80
71563;DHT22;59391;52.504;13.438;2023-06-10T11:36:30;30.30;33.20
71563;DHT22;59391;52.504;13.438;2023-06-10T11:38:59;30.70;33.10
71563;DHT22;59391;52.504;13.438;2023-06-10T11:41:27;31.10;33.10
71563;DHT22;59391;52.504;13.438;2023-06-10T11:44:02;31.50;32.10
71563;DHT22;59391;52.504;13.438;2023-06-10T11:46:28;32.00;32.90
71563;DHT22;59391;52.504;13.438;2023-06-10T11:48:56;32.40;31.10
71563;DHT22;59391;52.504;13.438;2023-06-10T11:51:27;32.80;31.40
71563;DHT22;59391;52.504;13.438;2023-06-10T11:53:56;33.20;30.50
71563;DHT22;59391;52.504;13.438;2023-06-10T11:56:22;33.60;30.00
71563;DHT22;59391;52.504;13.438;2023-06-10T11:59:15;33.90;29.70
71563;DHT22;59391;52.504;13.438;2023-06-10T12:01:45;34.20;30.40
71563;DHT22;59391;52.504;13.438;2023-06-10T12:04:13;34.50;30.40
71563;DHT22;59391;52.504;13.438;2023-06-10T12:06:48;34.70;30.80
71563;DHT22;59391;52.504;13.438;2023-06-10T12:09:20;34.80;30.10
71563;DHT22;59391;52.504;13.438;2023-06-10T12:12:05;34.90;28.50
71563;DHT22;59391;52.504;13.438;2023-06-10T12:14:57;34.90;28.50
71563;DHT22;59391;52.504;13.438;2023-06-10T12:19:55;34.80;28.90
71563;DHT22;59391;52.504;13.438;2023-06-10T12:22:21;34.70;28.30
71563;DHT22;59391;52.504;13.438;2023-06-10T12:25:03;34.50;28.30
71563;DHT22;59391;52.504;13.438;2023-06-10T12:27:32;34.40;28.90
71563;DHT22;59391;52.504;13.438;2023-06-10T12:30:00;34.30;28.90
71563;DHT22;59391;52.504;13.438;2023-06-10T12:32:36;34.20;29.10
71563;DHT22;59391;52.504;13.438;2023-06-10T12:35:23;34.20;29.50
71563;DHT22;59391;52.504;13.438;2023-06-10T12:38:05;34.20;30.40
71563;DHT22;59391;52.504;13.438;2023-06-10T12:40:39;34.20;30.00
71563;DHT22;59391;52.504;13.438;2023-06-10T12:43:06;34.30;30.00
71563;DHT22;59391;52.504;13.438;2023-06-10T12:45:34;34.50;30.90
71563;DHT22;59391;52.504;13.438;2023-06-10T12:48:25;34.60;30.00
71563;DHT22;59391;52.504;13.438;2023-06-10T12:50:55;34.80;30.20
71563;DHT22;59391;52.504;13.438;2023-06-10T12:53:24;35.10;30.00
71563;DHT22;59391;52.504;13.438;2023-06-10T12:55:51;35.30;29.80
71563;DHT22;59391;52.504;13.438;2023-06-10T12:58:19;35.50;29.60
71563;DHT22;59391;52.504;13.438;2023-06-10T13:00:47;35.70;30.40
71563;DHT22;59391;52.504;13.438;2023-06-10T13:03:14;35.80;30.00
71563;DHT22;59391;52.504;13.438;2023-06-10T13:05:40;36.00;29.30
71563;DHT22;59391;52.504;13.438;2023-06-10T13:08:07;36.10;29.50
71563;DHT22;59391;52.504;13.438;2023-06-10T13:10:35;36.20;28.70
71563;DHT22;59391;52.504;13.438;2023-06-10T13:13:02;36.20;28.90
71563;DHT22;59391;52.504;13.438;2023-06-10T13:15:31;36.10;29.30
71563;DHT22;59391;52.504;13.438;2023-06-10T13:18:02;36.10;28.80
71563;DHT22;59391;52.504;13.438;2023-06-10T13:20:29;36.00;29.20
71563;DHT22;59391;52.504;13.438;2023-06-10T13:22:54;35.90;28.80
71563;DHT22;59391;52.504;13.438;2023-06-10T13:25:20;35.80;29.10
71563;DHT22;59391;52.504;13.438;2023-06-10T13:27:46;35.70;29.40
71563;DHT22;59391;52.504;13.438;2023-06-10T13:30:11;35.50;29.70
71563;DHT22;59391;52.504;13.438;2023-06-10T13:32:37;35.30;29.80
71563;DHT22;59391;52.504;13.438;2023-06-10T13:35:03;35.10;29.70
71563;DHT22;59391;52.504;13.438;2023-06-10T13:37:29;35.00;29.90
71563;DHT22;59391;52.504;13.438;2023-06-10T13:39:55;34.80;29.70
71563;DHT22;59391;52.504;13.438;2023-06-10T13:42:21;34.60;30.00
71563;DHT22;59391;52.504;13.438;2023-06-10T13:44:47;34.50;30.70
71563;DHT22;59391;52.504;13.438;2023-06-10T13:47:14;34.30;30.60
71563;DHT22;59391;52.504;13.438;2023-06-10T13:49:41;34.20;30.60
71563;DHT22;59391;52.504;13.438;2023-06-10T13:52:07;34.00;31.20
71563;DHT22;59391;52.504;13.438;2023-06-10T13:54:33;33.90;31.20
71563;DHT22;59391;52.504;13.438;2023-06-10T13:57:01;33.80;31.70
71563;DHT22;59391;52.504;13.438;2023-06-10T13:59:27;33.70;31.50
71563;DHT22;59391;52.504;13.438;2023-06-10T14:01:53;33.50;31.70
71563;DHT22;59391;52.504;13.438;2023-06-10T14:04:19;33.40;31.60
71563;DHT22;59391;52.504;13.438;2023-06-10T14:06:44;33.30;31.90
71563;DHT22;59391;52.504;13.438;2023-06-10T14:09:12;33.20;31.40
71563;DHT22;59391;52.504;13.438;2023-06-10T14:11:38;33.10;31.00
71563;DHT22;59391;52.504;13.438;2023-06-10T14:14:03;33.00;31.50
71563;DHT22;59391;52.504;13.438;2023-06-10T14:16:29;32.90;30.80
71563;DHT22;59391;52.504;13.438;2023-06-10T14:18:55;32.80;30.80
71563;DHT22;59391;52.504;13.438;2023-06-10T14:21:20;32.70;30.80
71563;DHT22;59391;52.504;13.438;2023-06-10T14:23:46;32.70;30.70
71563;DHT22;59391;52.504;13.438;2023-06-10T14:26:14;32.70;30.50
71563;DHT22;59391;52.504;13.438;2023-06-10T14:28:40;32.70;30.20
71563;DHT22;59391;52.504;13.438;2023-06-10T14:31:05;32.70;30.60
71563;DHT22;59391;52.504;13.438;2023-06-10T14:33:32;32.70;30.90
71563;DHT22;59391;52.504;13.438;2023-06-10T14:35:58;32.70;30.50
71563;DHT22;59391;52.504;13.438;2023-06-10T14:38:24;32.70;29.90
71563;DHT22;59391;52.504;13.438;2023-06-10T14:40:49;32.70;30.00
71563;DHT22;59391;52.504;13.438;2023-06-10T14:43:15;32.70;30.00
71563;DHT22;59391;52.504;13.438;2023-06-10T14:45:41;32.70;29.70
71563;DHT22;59391;52.504;13.438;2023-06-10T14:48:07;32.70;30.30
71563;DHT22;59391;52.504;13.438;2023-06-10T14:50:37;32.70;29.90
71563;DHT22;59391;52.504;13.438;2023-06-10T14:53:03;32.70;30.20
71563;DHT22;59391;52.504;13.438;2023-06-10T14:55:29;32.70;29.90
71563;DHT22;59391;52.504;13.438;2023-06-10T14:57:55;32.70;29.90
71563;DHT22;59391;52.504;13.438;2023-06-10T15:00:23;32.70;29.10
71563;DHT22;59391;52.504;13.438;2023-06-10T15:02:50;32.70;29.10
71563;DHT22;59391;52.504;13.438;2023-06-10T15:05:17;32.80;30.00
71563;DHT22;59391;52.504;13.438;2023-06-10T15:07:45;32.70;29.40
71563;DHT22;59391;52.504;13.438;2023-06-10T15:10:11;32.80;29.20
71563;DHT22;59391;52.504;13.438;2023-06-10T15:12:39;32.80;29.20
71563;DHT22;59391;52.504;13.438;2023-06-10T15:15:05;32.80;29.00
71563;DHT22;59391;52.504;13.438;2023-06-10T15:17:31;32.80;29.40
71563;DHT22;59391;52.504;13.438;2023-06-10T15:19:56;32.80;28.80
71563;DHT22;59391;52.504;13.438;2023-06-10T15:22:22;32.80;28.70
71563;DHT22;59391;52.504;13.438;2023-06-10T15:24:48;32.70;29.20
71563;DHT22;59391;52.504;13.438;2023-06-10T15:27:13;32.70;28.90
71563;DHT22;59391;52.504;13.438;2023-06-10T15:29:42;32.70;28.40
71563;DHT22;59391;52.504;13.438;2023-06-10T15:32:08;32.70;28.10
71563;DHT22;59391;52.504;13.438;2023-06-10T15:34:34;32.70;29.00
71563;DHT22;59391;52.504;13.438;2023-06-10T15:37:01;32.70;28.20
71563;DHT22;59391;52.504;13.438;2023-06-10T15:39:26;32.70;27.70